Time;durP1;ratioP1;P1;durP2;ratioP2;P2;SDS_P1;SDS_P2;PMS_P1;PMS_P2;Temp;Humidity;BMP_temperature;BMP_pressure;BME280_temperature;BME280_humidity;BME280_pressure;Samples;Min_cycle;Max_cycle;Signal;HPM_P1;HPM_P2
2022/02/25 00:00:46;;;;;;;2.90;1.33;;;3.30;99.90;;;;;;4204100;28;20562;-81
2022/02/25 00:02:48;;;;;;;1.57;1.00;;;3.30;99.90;;;;;;4208192;28;20467;-82
2022/02/25 00:04:50;;;;;;;1.30;1.10;;;3.30;99.90;;;;;;4209134;28;20482;-81
2022/02/25 00:06:52;;;;;;;1.77;1.10;;;3.50;99.90;;;;;;4200649;28;20465;-86
2022/02/25 00:08:54;;;;;;;2.33;1.40;;;3.20;99.90;;;;;;4211606;28;20463;-81
2022/02/25 00:10:57;;;;;;;2.50;1.50;;;3.20;99.90;;;;;;4210417;28;20936;-80
2022/02/25 00:12:59;;;;;;;2.60;1.40;;;3.20;99.90;;;;;;4210834;28;20459;-80
2022/02/25 00:15:01;;;;;;;4.37;1.93;;;3.20;99.90;;;;;;4209813;28;20462;-80
2022/02/25 00:17:03;;;;;;;2.23;1.30;;;3.10;99.90;;;;;;4212436;28;20460;-80
2022/02/25 00:19:05;;;;;;;1.83;1.30;;;3.10;99.90;;;;;;4213369;28;20451;-80
2022/02/25 00:21:07;;;;;;;2.50;1.57;;;3.10;99.90;;;;;;4212708;28;20483;-80
2022/02/25 00:23:09;;;;;;;2.00;1.47;;;3.00;99.90;;;;;;4207078;28;20975;-80
2022/02/25 00:25:12;;;;;;;3.10;1.43;;;3.00;99.90;;;;;;4210763;28;20556;-80
2022/02/25 00:27:15;;;;;;;2.40;1.40;;;3.00;99.90;;;;;;4208657;28;20451;-80
2022/02/25 00:29:17;;;;;;;2.80;1.30;;;2.90;99.90;;;;;;4212131;28;20456;-80
2022/02/25 00:31:19;;;;;;;2.20;1.40;;;2.90;99.90;;;;;;4206211;28;20866;-80
2022/02/25 00:33:21;;;;;;;2.30;1.40;;;3.00;99.90;;;;;;4211893;28;20484;-81
2022/02/25 00:35:22;;;;;;;4.27;1.40;;;3.00;99.90;;;;;;4210349;28;20516;-82
2022/02/25 00:37:24;;;;;;;2.27;1.57;;;2.90;99.90;;;;;;4214174;28;20463;-84
2022/02/25 00:39:26;;;;;;;3.67;1.80;;;2.80;99.90;;;;;;4213566;28;20463;-83
2022/02/25 00:41:28;;;;;;;2.07;1.60;;;2.70;99.90;;;;;;4211998;28;20612;-80
2022/02/25 00:43:31;;;;;;;2.83;2.00;;;2.80;99.90;;;;;;4212624;28;20465;-80
2022/02/25 00:45:33;;;;;;;4.10;2.30;;;2.80;99.90;;;;;;4207360;28;20470;-79
2022/02/25 00:47:35;;;;;;;4.43;2.10;;;2.80;99.90;;;;;;4205928;28;20463;-80
2022/02/25 00:49:37;;;;;;;4.83;2.30;;;2.80;99.90;;;;;;4205914;28;20934;-80
2022/02/25 00:51:39;;;;;;;4.23;2.67;;;3.30;99.90;;;;;;4209976;28;20460;-80
2022/02/25 00:53:41;;;;;;;4.67;2.30;;;2.70;99.90;;;;;;4209420;28;20482;-80
2022/02/25 00:55:43;;;;;;;3.90;2.23;;;2.70;99.90;;;;;;4206787;28;20830;-79
2022/02/25 00:57:45;;;;;;;3.97;2.40;;;2.70;99.90;;;;;;4211291;28;20459;-80
2022/02/25 00:59:48;;;;;;;3.70;1.90;;;2.70;99.90;;;;;;4213787;28;20457;-80
2022/02/25 01:01:50;;;;;;;2.93;1.67;;;3.00;99.90;;;;;;4214466;28;20463;-80
2022/02/25 01:03:52;;;;;;;4.53;1.70;;;2.70;99.90;;;;;;4207843;28;20467;-80
2022/02/25 01:05:54;;;;;;;3.60;1.90;;;2.70;99.90;;;;;;4212807;28;20490;-81
2022/02/25 01:07:56;;;;;;;2.27;1.47;;;2.70;99.90;;;;;;4211209;28;20461;-80
2022/02/25 01:09:57;;;;;;;2.70;1.60;;;2.70;99.90;;;;;;4214687;28;20474;-80
2022/02/25 01:11:59;;;;;;;2.07;1.60;;;2.70;99.90;;;;;;4216264;28;20459;-80
2022/02/25 01:14:01;;;;;;;3.17;1.40;;;2.60;99.90;;;;;;4214741;28;20471;-80
2022/02/25 01:16:04;;;;;;;2.70;1.50;;;2.60;99.90;;;;;;4216415;28;21020;-80
2022/02/25 01:18:07;;;;;;;1.87;1.27;;;2.60;99.90;;;;;;4216351;28;20459;-80
2022/02/25 01:20:10;;;;;;;2.33;1.40;;;2.60;99.90;;;;;;4213769;28;20836;-80
2022/02/25 01:22:12;;;;;;;3.90;1.73;;;2.60;99.90;;;;;;4214198;28;20447;-80
2022/02/25 01:24:14;;;;;;;2.40;1.30;;;2.60;99.90;;;;;;4196283;28;20460;-80
2022/02/25 01:26:16;;;;;;;3.37;2.00;;;2.60;99.90;;;;;;4208739;28;20490;-80
2022/02/25 01:28:18;;;;;;;2.53;1.60;;;2.70;99.90;;;;;;4207473;28;20444;-80
2022/02/25 01:30:20;;;;;;;4.07;1.77;;;2.60;99.90;;;;;;4200817;28;20518;-80
2022/02/25 01:32:23;;;;;;;3.00;1.97;;;2.60;99.90;;;;;;4208620;28;20687;-80
2022/02/25 01:34:25;;;;;;;2.60;1.90;;;2.60;99.90;;;;;;4200551;28;20529;-80
2022/02/25 01:36:26;;;;;;;2.87;1.70;;;2.60;99.90;;;;;;4212845;28;20465;-80
2022/02/25 01:38:28;;;;;;;1.93;1.73;;;2.60;99.90;;;;;;4208253;28;20447;-80
2022/02/25 01:40:30;;;;;;;4.10;2.47;;;2.80;99.90;;;;;;4216698;28;20524;-80
2022/02/25 01:42:43;;;;;;;4.67;2.50;;;2.60;99.90;;;;;;4209659;28;21037;-80
2022/02/25 01:44:45;;;;;;;5.60;2.40;;;2.70;99.90;;;;;;4220054;28;20482;-81
2022/02/25 01:46:48;;;;;;;4.07;2.50;;;2.70;99.90;;;;;;4219467;28;20464;-81
2022/02/25 01:48:51;;;;;;;3.50;2.57;;;2.70;99.90;;;;;;4212228;28;20956;-80
2022/02/25 01:50:53;;;;;;;3.97;2.70;;;2.70;99.90;;;;;;4209787;28;20876;-80
2022/02/25 01:53:00;;;;;;;5.97;3.07;;;2.70;99.90;;;;;;4204467;28;20467;-80
2022/02/25 01:55:03;;;;;;;6.53;3.40;;;2.70;99.90;;;;;;4204712;28;20487;-80
2022/02/25 01:57:06;;;;;;;7.77;3.40;;;3.50;99.90;;;;;;4201098;28;20470;-81
2022/02/25 01:59:07;;;;;;;6.30;3.50;;;2.70;99.90;;;;;;4205691;28;20512;-81
2022/02/25 02:01:09;;;;;;;6.70;3.70;;;2.80;99.90;;;;;;4204295;28;20895;-80
2022/02/25 02:03:11;;;;;;;5.10;3.50;;;2.70;99.90;;;;;;4205945;28;20464;-80
2022/02/25 02:05:15;;;;;;;6.10;3.60;;;2.70;99.90;;;;;;4210510;28;20490;-80
2022/02/25 02:07:16;;;;;;;7.20;3.53;;;2.70;99.90;;;;;;4209632;28;20500;-81
2022/02/25 02:09:19;;;;;;;5.67;3.60;;;2.70;99.90;;;;;;4217467;28;20525;-80
2022/02/25 02:11:29;;;;;;;6.60;3.77;;;2.70;99.90;;;;;;4208164;28;20462;-80
2022/02/25 02:13:31;;;;;;;8.77;3.87;;;2.70;99.90;;;;;;4217028;28;20879;-80
2022/02/25 02:15:33;;;;;;;7.33;4.07;;;2.70;99.90;;;;;;4210334;28;20482;-80
2022/02/25 02:17:36;;;;;;;8.77;3.97;;;2.60;99.90;;;;;;4219465;28;20875;-80
2022/02/25 02:19:38;;;;;;;5.30;3.77;;;2.60;99.90;;;;;;4213221;28;20466;-80
2022/02/25 02:21:44;;;;;;;5.47;3.27;;;2.60;99.90;;;;;;4207083;28;21060;-80
2022/02/25 02:23:47;;;;;;;5.63;3.27;;;2.60;99.90;;;;;;4205351;28;20487;-80
2022/02/25 02:25:49;;;;;;;5.13;2.70;;;2.60;99.90;;;;;;4208639;28;20897;-80
2022/02/25 02:30:11;;;;;;;5.80;2.83;;;2.60;99.90;;;;;;4219622;28;20455;-80
2022/02/25 02:32:13;;;;;;;4.87;2.87;;;2.50;99.90;;;;;;4220550;28;20543;-80
2022/02/25 02:34:17;;;;;;;4.40;2.60;;;2.50;99.90;;;;;;4218824;28;20493;-80
2022/02/25 02:36:19;;;;;;;4.03;2.47;;;2.50;99.90;;;;;;4215766;28;20501;-80
2022/02/25 02:38:21;;;;;;;5.50;3.03;;;2.50;99.90;;;;;;4210095;28;20467;-80
2022/02/25 02:40:24;;;;;;;4.87;2.70;;;2.50;99.90;;;;;;4221049;28;20463;-80
2022/02/25 02:42:25;;;;;;;5.57;2.63;;;2.50;99.90;;;;;;4219371;28;20864;-80
2022/02/25 02:44:27;;;;;;;5.57;3.03;;;2.40;99.90;;;;;;4224676;28;20487;-80
2022/02/25 02:46:29;;;;;;;4.33;2.97;;;2.40;99.90;;;;;;4211183;28;20485;-80
2022/02/25 02:48:31;;;;;;;7.20;2.73;;;2.40;99.90;;;;;;4230234;28;20455;-80
2022/02/25 02:50:33;;;;;;;6.07;2.90;;;2.40;99.90;;;;;;4229453;28;20489;-80
2022/02/25 02:52:34;;;;;;;6.63;2.73;;;2.40;99.90;;;;;;4229522;28;20458;-80
2022/02/25 02:54:36;;;;;;;4.13;2.80;;;2.40;99.90;;;;;;4221172;28;20490;-80
2022/02/25 02:56:39;;;;;;;4.63;2.70;;;2.40;99.90;;;;;;4206427;28;20814;-80
2022/02/25 02:58:41;;;;;;;4.80;2.60;;;2.40;99.90;;;;;;4215989;28;20473;-80
2022/02/25 03:00:45;;;;;;;4.80;2.83;;;2.30;99.90;;;;;;4217006;28;20946;-81
2022/02/25 03:02:47;;;;;;;5.00;2.70;;;2.30;99.90;;;;;;4209236;28;20473;-81
2022/02/25 03:04:49;;;;;;;5.50;3.10;;;2.30;99.90;;;;;;4202474;28;20491;-80
2022/02/25 03:06:51;;;;;;;3.93;2.73;;;2.30;99.90;;;;;;4212998;28;20450;-80
2022/02/25 03:08:53;;;;;;;5.50;2.70;;;2.30;99.90;;;;;;4215218;28;20483;-80
2022/02/25 03:10:55;;;;;;;4.70;2.67;;;2.30;99.90;;;;;;4215746;28;20471;-80
2022/02/25 03:12:58;;;;;;;6.13;2.60;;;2.30;99.90;;;;;;4206750;28;20505;-80
2022/02/25 03:15:00;;;;;;;4.07;2.50;;;2.30;99.90;;;;;;4199504;28;20486;-81
2022/02/25 03:17:02;;;;;;;4.90;2.77;;;2.30;99.90;;;;;;4207135;28;20446;-80
2022/02/25 03:19:04;;;;;;;3.57;2.57;;;2.20;99.90;;;;;;4205497;28;20472;-81
2022/02/25 03:21:07;;;;;;;5.63;2.90;;;2.20;99.90;;;;;;4200651;28;20982;-81
2022/02/25 03:23:09;;;;;;;10.30;3.10;;;2.20;99.90;;;;;;4206451;28;20820;-80
2022/02/25 03:25:13;;;;;;;6.37;2.77;;;2.20;99.90;;;;;;4206790;28;20468;-80
2022/02/25 03:27:15;;;;;;;6.90;2.80;;;2.20;99.90;;;;;;4212066;28;20473;-80
2022/02/25 03:29:18;;;;;;;6.93;2.87;;;2.20;99.90;;;;;;4212630;28;20500;-80
2022/02/25 03:31:19;;;;;;;4.23;2.60;;;2.20;99.90;;;;;;4215407;28;20493;-80
2022/02/25 03:33:21;;;;;;;5.07;2.80;;;2.10;99.90;;;;;;4212363;28;20473;-81
2022/02/25 03:35:23;;;;;;;6.03;3.23;;;2.10;99.90;;;;;;4214944;28;20459;-80
2022/02/25 03:37:27;;;;;;;4.87;2.70;;;2.10;99.90;;;;;;4210838;28;21162;-81
2022/02/25 03:39:28;;;;;;;7.33;2.83;;;2.10;99.90;;;;;;4217390;28;20476;-81
2022/02/25 03:41:30;;;;;;;6.23;3.00;;;2.10;99.90;;;;;;4218471;28;20546;-80
2022/02/25 03:43:32;;;;;;;5.67;2.60;;;2.10;99.90;;;;;;4219136;28;20481;-81
2022/02/25 03:45:35;;;;;;;4.57;2.60;;;2.10;99.90;;;;;;4208677;28;20471;-80
2022/02/25 03:47:37;;;;;;;4.50;2.43;;;2.10;99.90;;;;;;4209998;28;20512;-80
2022/02/25 03:49:39;;;;;;;6.57;2.60;;;2.10;99.90;;;;;;4220197;28;20458;-80
2022/02/25 03:51:40;;;;;;;7.77;2.87;;;2.10;99.90;;;;;;4211292;28;20471;-81
2022/02/25 03:53:42;;;;;;;2.93;1.90;;;2.00;99.90;;;;;;4207882;28;20494;-80
2022/02/25 03:55:44;;;;;;;5.63;2.17;;;2.00;99.90;;;;;;4217334;28;20507;-80
2022/02/25 03:57:46;;;;;;;6.30;2.20;;;2.00;99.90;;;;;;4216534;28;20854;-80
2022/02/25 03:59:48;;;;;;;3.53;2.20;;;2.00;99.90;;;;;;4217915;28;20458;-80
2022/02/25 04:01:52;;;;;;;3.63;1.93;;;2.00;99.90;;;;;;4210086;28;20983;-80
2022/02/25 04:03:54;;;;;;;3.00;1.73;;;2.00;99.90;;;;;;4216707;28;20509;-80
2022/02/25 04:05:56;;;;;;;5.13;2.00;;;2.00;99.90;;;;;;4213694;28;20528;-80
2022/02/25 04:07:57;;;;;;;5.77;2.20;;;2.00;99.90;;;;;;4213928;28;20507;-81
2022/02/25 04:09:59;;;;;;;2.83;1.80;;;2.00;99.90;;;;;;4208961;28;21010;-80
2022/02/25 04:12:02;;;;;;;3.53;1.90;;;2.00;99.90;;;;;;4220979;28;20499;-80
2022/02/25 04:14:04;;;;;;;4.77;2.10;;;2.00;99.90;;;;;;4220028;28;20568;-80
2022/02/25 04:16:06;;;;;;;3.57;2.00;;;2.00;99.90;;;;;;4220497;28;20525;-80
2022/02/25 04:18:10;;;;;;;2.93;1.83;;;2.10;99.90;;;;;;4218731;28;20482;-80
2022/02/25 04:20:12;;;;;;;8.13;2.60;;;1.90;99.90;;;;;;4220412;28;20475;-80
2022/02/25 04:22:14;;;;;;;5.23;2.43;;;1.90;99.90;;;;;;4218970;28;20940;-81
2022/02/25 04:24:15;;;;;;;6.17;2.40;;;2.00;99.90;;;;;;4211410;28;20513;-80
2022/02/25 04:26:17;;;;;;;4.67;2.03;;;2.00;99.90;;;;;;4209873;28;20521;-81
2022/02/25 04:28:19;;;;;;;4.23;2.23;;;1.90;99.90;;;;;;4218198;28;20468;-81
2022/02/25 04:30:21;;;;;;;4.00;2.47;;;2.00;99.90;;;;;;4216857;28;20473;-80
2022/02/25 04:32:23;;;;;;;2.93;1.97;;;1.90;99.90;;;;;;4214228;28;20454;-80
2022/02/25 04:34:27;;;;;;;4.00;2.60;;;1.90;99.90;;;;;;4217356;28;20483;-80
2022/02/25 04:36:28;;;;;;;4.37;2.47;;;1.90;99.90;;;;;;4213634;28;20475;-80
2022/02/25 04:38:30;;;;;;;5.07;2.50;;;1.90;99.90;;;;;;4218143;28;20463;-81
2022/02/25 04:40:32;;;;;;;3.47;2.27;;;2.00;99.90;;;;;;4206134;28;20489;-80
2022/02/25 04:42:34;;;;;;;4.33;2.43;;;1.90;99.90;;;;;;4217861;28;20497;-80
2022/02/25 04:44:35;;;;;;;4.97;2.33;;;1.90;99.90;;;;;;4226917;22;20501;-84
2022/02/25 04:46:39;;;;;;;4.80;2.50;;;1.90;99.90;;;;;;4198968;28;20870;-84
2022/02/25 04:48:41;;;;;;;6.10;2.30;;;1.90;99.90;;;;;;4196379;28;20542;-84
2022/02/25 04:50:44;;;;;;;4.57;2.30;;;1.90;99.90;;;;;;4197800;28;20455;-85
2022/02/25 04:52:46;;;;;;;4.53;2.07;;;1.90;99.90;;;;;;4197433;28;20459;-84
2022/02/25 04:54:49;;;;;;;3.00;1.83;;;1.90;99.90;;;;;;4199932;28;20479;-85
2022/02/25 04:56:50;;;;;;;5.37;1.80;;;1.90;99.90;;;;;;4204391;28;20869;-85
2022/02/25 04:58:53;;;;;;;5.97;2.00;;;1.90;99.90;;;;;;4203817;28;20443;-85
2022/02/25 05:00:55;;;;;;;3.63;2.10;;;1.90;99.90;;;;;;4208743;28;20455;-85
2022/02/25 05:02:56;;;;;;;5.80;1.80;;;1.80;99.90;;;;;;4206251;28;20481;-85
2022/02/25 05:04:58;;;;;;;6.73;2.47;;;1.80;99.90;;;;;;4198764;28;20486;-85
2022/02/25 05:07:01;;;;;;;3.73;2.00;;;1.90;99.90;;;;;;4212996;28;20477;-84
2022/02/25 05:09:04;;;;;;;3.17;1.90;;;1.80;99.90;;;;;;4210315;28;20465;-85
2022/02/25 05:11:05;;;;;;;3.73;2.00;;;1.80;99.90;;;;;;4207522;28;20478;-85
2022/02/25 05:13:07;;;;;;;3.93;2.07;;;1.80;99.90;;;;;;4212446;28;20846;-84
2022/02/25 05:22:08;;;;;;;3.30;1.40;;;1.80;99.90;;;;;;4202936;28;20516;-84
2022/02/25 05:24:10;;;;;;;3.60;1.63;;;1.80;99.90;;;;;;4206542;28;20539;-84
2022/02/25 05:26:11;;;;;;;3.70;2.00;;;1.80;99.90;;;;;;4210980;28;20505;-84
2022/02/25 05:28:13;;;;;;;3.57;1.70;;;1.80;99.90;;;;;;4208994;28;20464;-84
2022/02/25 05:30:15;;;;;;;3.60;1.70;;;1.70;99.90;;;;;;4203308;28;20459;-85
2022/02/25 05:32:17;;;;;;;2.63;1.53;;;1.70;99.90;;;;;;4211572;28;20830;-85
2022/02/25 05:34:19;;;;;;;6.23;1.50;;;1.70;99.90;;;;;;4212903;28;20892;-84
2022/02/25 05:36:21;;;;;;;5.33;1.40;;;1.70;99.90;;;;;;4206537;28;20503;-85
2022/02/25 05:38:24;;;;;;;3.63;1.67;;;1.70;99.90;;;;;;4210510;28;20528;-83
2022/02/25 05:40:26;;;;;;;3.27;1.30;;;1.70;99.90;;;;;;4205681;28;20567;-84
2022/02/25 05:42:28;;;;;;;3.10;1.57;;;1.60;99.90;;;;;;4205795;28;20546;-84
2022/02/25 05:44:30;;;;;;;1.93;1.37;;;1.70;99.90;;;;;;4208269;28;20582;-83
2022/02/25 05:46:31;;;;;;;2.83;1.10;;;1.60;99.90;;;;;;4207732;28;20471;-83
2022/02/25 05:48:33;;;;;;;2.23;1.20;;;1.60;99.90;;;;;;4209638;28;20464;-82
2022/02/25 05:50:36;;;;;;;1.63;1.07;;;1.60;99.90;;;;;;4207195;28;20496;-82
2022/02/25 05:52:37;;;;;;;4.87;2.03;;;1.50;99.90;;;;;;4199199;28;20929;-82
2022/02/25 05:54:40;;;;;;;5.80;1.20;;;1.60;99.90;;;;;;4204004;28;20543;-83
2022/02/25 05:56:42;;;;;;;5.43;1.60;;;1.50;99.90;;;;;;4209877;28;20454;-83
2022/02/25 05:58:44;;;;;;;5.40;1.40;;;1.50;99.90;;;;;;4207116;28;20501;-82
2022/02/25 06:00:46;;;;;;;2.83;1.27;;;1.50;99.90;;;;;;4209590;28;20469;-82
2022/02/25 06:02:49;;;;;;;1.93;1.10;;;1.50;99.90;;;;;;4207978;28;20489;-83
2022/02/25 06:04:51;;;;;;;2.50;1.23;;;1.50;99.90;;;;;;4207740;28;20980;-82
2022/02/25 06:06:53;;;;;;;2.63;1.10;;;1.50;99.90;;;;;;4207753;28;20469;-82
2022/02/25 06:08:55;;;;;;;4.77;1.07;;;1.50;99.90;;;;;;4213454;28;20441;-82
2022/02/25 06:10:58;;;;;;;2.50;1.10;;;1.40;99.90;;;;;;4204461;28;20478;-82
2022/02/25 06:13:00;;;;;;;4.03;0.97;;;1.40;99.90;;;;;;4207046;28;20449;-82
2022/02/25 06:15:02;;;;;;;2.23;1.00;;;1.40;99.90;;;;;;4207504;28;20473;-82
2022/02/25 06:17:04;;;;;;;1.77;1.07;;;1.50;99.90;;;;;;4206290;28;20486;-82
2022/02/25 06:19:05;;;;;;;4.20;1.50;;;1.50;99.90;;;;;;4209104;28;20454;-82
2022/02/25 06:21:08;;;;;;;5.83;1.20;;;1.50;99.90;;;;;;4205984;28;20459;-83
2022/02/25 06:23:10;;;;;;;4.87;1.57;;;1.50;99.90;;;;;;4211847;28;20811;-83
2022/02/25 06:25:14;;;;;;;3.57;1.30;;;2.20;99.90;;;;;;4212483;28;20546;-82
2022/02/25 06:27:17;;;;;;;2.33;1.27;;;1.60;99.90;;;;;;4211394;28;20831;-83
2022/02/25 06:29:19;;;;;;;2.93;1.20;;;1.60;99.90;;;;;;4208027;28;20454;-82
2022/02/25 06:31:21;;;;;;;2.73;1.30;;;1.60;99.90;;;;;;4209114;28;20827;-83
2022/02/25 06:33:23;;;;;;;4.50;1.50;;;1.60;99.90;;;;;;4209070;28;20810;-83
2022/02/25 06:35:28;;;;;;;3.20;1.10;;;1.60;99.90;;;;;;4207370;28;20477;-82
2022/02/25 06:37:30;;;;;;;2.80;1.10;;;1.60;99.90;;;;;;4209373;28;20450;-82
2022/02/25 06:39:32;;;;;;;1.63;1.10;;;1.60;99.90;;;;;;4208656;28;20455;-83
2022/02/25 06:41:34;;;;;;;3.13;1.17;;;1.60;99.90;;;;;;4214417;28;20446;-83
2022/02/25 06:43:37;;;;;;;1.57;1.23;;;1.70;99.90;;;;;;4209206;28;20478;-83
2022/02/25 06:45:39;;;;;;;3.07;1.20;;;1.70;99.90;;;;;;4215644;28;20581;-83
2022/02/25 06:47:41;;;;;;;5.10;1.00;;;1.70;99.90;;;;;;4208946;28;20547;-82
2022/02/25 06:49:43;;;;;;;5.50;1.30;;;1.80;99.90;;;;;;4210383;28;20469;-82
2022/02/25 06:51:45;;;;;;;5.30;1.57;;;1.80;99.90;;;;;;4214901;28;20523;-83
2022/02/25 06:53:46;;;;;;;2.67;1.30;;;1.80;99.90;;;;;;4212646;28;20532;-83
2022/02/25 06:55:49;;;;;;;7.47;1.50;;;1.90;99.90;;;;;;4209817;28;20458;-82
2022/02/25 06:57:51;;;;;;;2.57;1.30;;;1.90;99.90;;;;;;4201327;28;20486;-84
2022/02/25 06:59:54;;;;;;;2.63;1.30;;;1.90;99.90;;;;;;4204291;28;20495;-83
2022/02/25 07:01:56;;;;;;;7.60;1.50;;;1.90;99.90;;;;;;4206611;28;20474;-82
2022/02/25 07:03:58;;;;;;;4.13;1.80;;;1.90;99.90;;;;;;4207671;28;20466;-82
2022/02/25 07:06:00;;;;;;;3.67;1.57;;;1.90;99.90;;;;;;4206691;28;20459;-83
2022/02/25 07:08:02;;;;;;;4.40;1.50;;;1.90;99.90;;;;;;4206117;28;20478;-82
2022/02/25 07:10:06;;;;;;;2.50;1.60;;;1.90;99.90;;;;;;4207026;28;20469;-82
2022/02/25 07:12:09;;;;;;;5.67;2.07;;;1.90;99.90;;;;;;4208985;28;20491;-82
2022/02/25 07:14:10;;;;;;;3.83;1.63;;;1.90;99.90;;;;;;4211059;28;20483;-83
2022/02/25 07:16:14;;;;;;;3.20;2.00;;;1.90;99.90;;;;;;4208399;28;20451;-82
2022/02/25 07:18:16;;;;;;;6.60;1.97;;;1.90;99.90;;;;;;4206295;28;21258;-82
2022/02/25 07:20:18;;;;;;;4.43;2.10;;;1.90;99.90;;;;;;4207153;28;20454;-83
2022/02/25 07:22:19;;;;;;;6.33;2.20;;;2.10;99.90;;;;;;4206753;28;20474;-82
2022/02/25 07:24:21;;;;;;;3.63;1.90;;;2.10;99.90;;;;;;4205906;28;20471;-83
2022/02/25 07:26:23;;;;;;;3.70;2.10;;;2.00;99.90;;;;;;4207119;28;20922;-82
2022/02/25 07:28:25;;;;;;;5.23;2.20;;;2.00;99.90;;;;;;4208359;28;20502;-83
2022/02/25 07:30:28;;;;;;;5.07;2.33;;;2.00;99.90;;;;;;4206691;28;20455;-83
2022/02/25 07:32:31;;;;;;;9.83;2.50;;;2.10;99.90;;;;;;4204687;28;20477;-82
2022/02/25 07:34:33;;;;;;;5.00;2.17;;;2.10;99.90;;;;;;4197972;28;20468;-83
2022/02/25 07:36:35;;;;;;;5.43;2.50;;;2.20;99.90;;;;;;4208173;28;20880;-83
2022/02/25 07:38:37;;;;;;;4.93;2.23;;;2.20;99.90;;;;;;4206865;28;20469;-83
2022/02/25 07:40:39;;;;;;;6.57;2.33;;;2.20;99.90;;;;;;4207325;28;20451;-82
2022/02/25 07:42:42;;;;;;;3.17;2.17;;;2.30;99.90;;;;;;4204932;28;20545;-81
2022/02/25 07:44:44;;;;;;;4.10;2.20;;;2.40;99.90;;;;;;4206712;28;20494;-80
2022/02/25 07:46:46;;;;;;;4.40;2.00;;;2.40;99.90;;;;;;4207041;28;20443;-79
2022/02/25 07:48:49;;;;;;;6.67;2.20;;;3.20;99.90;;;;;;4204386;28;20467;-80
2022/02/25 07:50:51;;;;;;;6.90;2.30;;;2.60;99.90;;;;;;4204893;28;20477;-81
2022/02/25 07:52:53;;;;;;;6.73;2.27;;;2.60;99.90;;;;;;4203661;28;20472;-80
2022/02/25 07:54:55;;;;;;;4.17;1.93;;;2.70;99.90;;;;;;4204733;28;20767;-80
2022/02/25 07:56:57;;;;;;;5.87;2.20;;;2.70;99.90;;;;;;4205511;28;21015;-83
2022/02/25 07:58:59;;;;;;;4.73;2.00;;;2.80;99.90;;;;;;4206002;28;20509;-82
2022/02/25 08:01:01;;;;;;;8.50;2.00;;;2.90;99.90;;;;;;4205681;28;20451;-83
2022/02/25 08:03:03;;;;;;;5.70;2.40;;;2.90;99.90;;;;;;4204602;28;20484;-83
2022/02/25 08:05:08;;;;;;;3.67;2.10;;;3.00;99.90;;;;;;4205625;28;20492;-83
2022/02/25 08:07:10;;;;;;;5.80;2.33;;;3.10;99.90;;;;;;4203913;28;20458;-82
2022/02/25 08:09:11;;;;;;;8.90;2.60;;;3.10;99.90;;;;;;4207782;28;20831;-82
2022/02/25 08:11:13;;;;;;;4.67;2.20;;;3.30;99.90;;;;;;4202434;28;20460;-83
2022/02/25 08:13:16;;;;;;;4.70;2.30;;;3.30;99.90;;;;;;4206332;28;20521;-82
2022/02/25 08:15:18;;;;;;;5.73;2.20;;;3.30;99.90;;;;;;4204647;28;21027;-84
2022/02/25 08:17:19;;;;;;;5.63;2.57;;;3.50;99.90;;;;;;4206571;28;21116;-82
2022/02/25 08:19:21;;;;;;;4.37;2.17;;;3.40;99.90;;;;;;4208032;28;20497;-82
2022/02/25 08:21:24;;;;;;;5.97;1.70;;;3.60;99.90;;;;;;4206438;28;20455;-80
2022/02/25 08:23:26;;;;;;;5.67;2.30;;;3.50;99.90;;;;;;4201962;28;20483;-82
2022/02/25 08:25:28;;;;;;;5.57;1.97;;;3.50;99.90;;;;;;4207022;28;20483;-82
2022/02/25 08:27:30;;;;;;;4.63;2.30;;;3.50;99.90;;;;;;4201326;28;20480;-82
2022/02/25 08:29:32;;;;;;;5.50;1.87;;;3.60;99.90;;;;;;4207253;28;20466;-82
2022/02/25 08:31:34;;;;;;;3.40;2.03;;;4.20;99.90;;;;;;4206609;28;20463;-83
2022/02/25 08:33:35;;;;;;;3.57;1.57;;;4.20;99.90;;;;;;4206189;28;20558;-79
2022/02/25 08:35:38;;;;;;;9.33;2.13;;;3.70;99.90;;;;;;4202540;28;20491;-82
2022/02/25 08:37:42;;;;;;;6.00;2.03;;;3.70;99.90;;;;;;4204474;28;20521;-82
2022/02/25 08:39:44;;;;;;;4.83;1.57;;;3.70;99.90;;;;;;4202112;28;20447;-82
2022/02/25 08:41:46;;;;;;;4.90;1.80;;;3.90;99.90;;;;;;4203348;28;20455;-82
2022/02/25 08:43:48;;;;;;;2.73;1.80;;;3.80;99.90;;;;;;4205335;28;20498;-80
2022/02/25 08:45:49;;;;;;;5.40;1.67;;;3.80;99.90;;;;;;4206282;28;20569;-82
2022/02/25 08:47:52;;;;;;;11.07;1.97;;;3.80;99.90;;;;;;4205716;28;20834;-82
2022/02/25 08:49:53;;;;;;;4.83;1.57;;;3.90;99.90;;;;;;4207794;28;21036;-82
2022/02/25 08:51:55;;;;;;;6.87;1.80;;;3.90;99.90;;;;;;4205762;28;20474;-83
2022/02/25 08:53:58;;;;;;;5.37;2.00;;;4.00;99.90;;;;;;4204919;28;20475;-83
2022/02/25 08:56:00;;;;;;;10.90;1.97;;;4.00;99.90;;;;;;4204507;28;20459;-82
2022/02/25 08:58:03;;;;;;;5.20;1.50;;;4.00;99.90;;;;;;4199903;28;20474;-82
2022/02/25 09:00:06;;;;;;;6.07;2.33;;;4.10;99.90;;;;;;4203884;28;21065;-82
2022/02/25 09:02:08;;;;;;;5.37;1.90;;;4.10;99.90;;;;;;4203067;28;20485;-83
2022/02/25 09:04:10;;;;;;;7.83;1.73;;;4.20;99.90;;;;;;4203714;28;20494;-82
2022/02/25 09:06:14;;;;;;;7.03;1.47;;;4.20;99.90;;;;;;4203666;28;20441;-82
2022/02/25 09:08:16;;;;;;;6.03;1.60;;;4.20;99.90;;;;;;4205092;28;20473;-82
2022/02/25 09:10:21;;;;;;;5.13;1.43;;;4.30;99.90;;;;;;4204468;28;20465;-82
2022/02/25 09:12:23;;;;;;;3.73;1.53;;;4.30;99.90;;;;;;4202898;28;20986;-82
2022/02/25 09:14:28;;;;;;;6.20;1.50;;;4.30;99.90;;;;;;4204064;28;20585;-82
2022/02/25 09:16:29;;;;;;;5.53;1.77;;;4.40;99.90;;;;;;4205589;28;20457;-81
2022/02/25 09:18:31;;;;;;;2.83;1.37;;;4.40;99.90;;;;;;4206496;28;20972;-82
2022/02/25 09:20:36;;;;;;;6.30;1.50;;;4.40;99.90;;;;;;4206701;28;20539;-82
2022/02/25 09:22:38;;;;;;;5.60;1.43;;;4.50;99.90;;;;;;4205115;28;20464;-82
2022/02/25 09:24:40;;;;;;;3.33;1.20;;;4.50;99.90;;;;;;4204179;28;20495;-82
2022/02/25 09:26:44;;;;;;;3.83;1.47;;;4.50;99.90;;;;;;4204627;28;20949;-82
2022/02/25 09:28:45;;;;;;;5.30;1.10;;;4.50;99.90;;;;;;4204865;28;20479;-82
2022/02/25 09:30:47;;;;;;;5.90;1.53;;;4.60;99.90;;;;;;4204617;28;20475;-82
2022/02/25 09:32:49;;;;;;;4.73;1.40;;;4.70;99.90;;;;;;4205230;28;20459;-82
2022/02/25 09:34:51;;;;;;;4.30;1.40;;;4.70;99.90;;;;;;4202026;28;20535;-82
2022/02/25 09:36:53;;;;;;;5.27;1.73;;;4.70;99.90;;;;;;4200888;28;20996;-82
2022/02/25 09:38:54;;;;;;;4.13;1.53;;;4.70;99.90;;;;;;4203867;28;20960;-82
2022/02/25 09:40:56;;;;;;;5.97;1.20;;;4.70;99.90;;;;;;4202676;28;21367;-82
2022/02/25 09:43:00;;;;;;;5.70;1.50;;;4.70;99.90;;;;;;4205103;28;20466;-82
2022/02/25 09:45:02;;;;;;;7.37;2.17;;;4.70;99.90;;;;;;4204696;28;20506;-81
2022/02/25 09:47:04;;;;;;;6.53;1.43;;;4.70;99.90;;;;;;4203804;28;20461;-82
2022/02/25 09:49:06;;;;;;;3.93;1.57;;;4.70;99.90;;;;;;4201642;28;20517;-82
2022/02/25 09:51:09;;;;;;;4.10;1.43;;;4.70;99.90;;;;;;4204612;28;20460;-82
2022/02/25 09:53:11;;;;;;;6.13;1.60;;;4.70;99.90;;;;;;4204777;28;20888;-82
2022/02/25 09:55:21;;;;;;;5.90;1.60;;;4.70;99.90;;;;;;4204107;28;21069;-82
2022/02/25 09:57:23;;;;;;;3.03;1.33;;;5.50;99.90;;;;;;4203634;28;20458;-82
2022/02/25 09:59:26;;;;;;;4.20;1.40;;;4.70;99.90;;;;;;4209642;28;20473;-82
2022/02/25 10:01:33;;;;;;;5.40;1.27;;;4.70;99.90;;;;;;4205801;28;20473;-82
2022/02/25 10:03:35;;;;;;;5.73;1.37;;;4.70;99.90;;;;;;4208230;28;20486;-82
2022/02/25 10:05:37;;;;;;;6.17;1.97;;;4.80;99.90;;;;;;4208288;28;20517;-82
2022/02/25 10:07:39;;;;;;;4.23;1.10;;;4.90;99.90;;;;;;4206049;28;20513;-82
2022/02/25 10:09:42;;;;;;;3.90;1.20;;;4.90;99.90;;;;;;4206975;28;20463;-82
2022/02/25 10:12:12;;;;;;;4.97;1.30;;;5.00;99.90;;;;;;4207813;28;20464;-82
2022/02/25 10:14:14;;;;;;;8.17;1.40;;;5.00;99.90;;;;;;4147986;28;20487;-82
2022/02/25 10:16:18;;;;;;;3.50;1.10;;;5.10;99.40;;;;;;4206283;28;20463;-82
2022/02/25 10:18:23;;;;;;;5.67;1.60;;;5.10;99.70;;;;;;4206486;28;20467;-82
2022/02/25 10:20:29;;;;;;;3.80;1.20;;;5.00;99.30;;;;;;4205965;28;20463;-82
2022/02/25 10:22:33;;;;;;;5.60;1.53;;;5.10;99.60;;;;;;4208256;28;20520;-82
2022/02/25 10:24:44;;;;;;;3.67;1.13;;;5.10;99.80;;;;;;4210610;28;20501;-82
2022/02/25 10:26:49;;;;;;;4.17;1.10;;;5.10;98.70;;;;;;4207130;28;20458;-82
2022/02/25 10:28:55;;;;;;;5.03;1.30;;;5.00;99.60;;;;;;4208169;28;20468;-81
2022/02/25 10:31:20;;;;;;;4.53;1.50;;;5.10;99.90;;;;;;4211619;28;20441;-81
2022/02/25 10:33:33;;;;;;;2.13;1.07;;;5.20;99.90;;;;;;4207137;28;20485;-83
2022/02/25 10:35:36;;;;;;;6.20;1.10;;;5.30;99.90;;;;;;4206774;28;20526;-81
2022/02/25 10:37:57;;;;;;;5.20;1.23;;;5.40;99.90;;;;;;4203785;28;21008;-82
2022/02/25 10:39:59;;;;;;;6.50;1.20;;;5.50;97.40;;;;;;4206120;28;20464;-81
2022/02/25 10:42:04;;;;;;;5.33;1.57;;;5.60;94.40;;;;;;4207925;28;20815;-82
2022/02/25 10:46:12;;;;;;;5.93;1.53;;;5.70;89.40;;;;;;4220410;28;20561;-76
2022/02/25 10:48:17;;;;;;;4.17;1.07;;;5.70;87.00;;;;;;4223548;28;20528;-79
2022/02/25 10:50:25;;;;;;;4.63;1.27;;;5.80;83.40;;;;;;4225589;28;20455;-76
2022/02/25 10:52:30;;;;;;;7.17;1.37;;;5.80;82.00;;;;;;4218237;28;20845;-77
2022/02/25 10:54:41;;;;;;;4.47;1.20;;;5.90;81.70;;;;;;4215504;28;20838;-77
2022/02/25 10:56:45;;;;;;;7.07;1.27;;;5.90;81.90;;;;;;4201839;28;20461;-77
2022/02/25 10:58:51;;;;;;;3.13;1.33;;;5.90;81.70;;;;;;4204849;28;20588;-76